Friday, July 29, 2016, 7:30 PM EDT

KGED, Georgetown Sussex Co Airport

Location: Georgetown, DE, United States Lat: 38.683
Local Time: 7:30 PM EDT (23:30 GMT) Lon: -75.367
Time Zone: US/Eastern Elev: 52 ft

Show me the last for .
Show Decoded

2016-07-29 18:54 METAR KGED 292254Z AUTO 10005KT 10SM FEW060 29/21 A2990 RMK AO2 SLP122 T02890211
                 =
2016-07-29 17:54 METAR KGED 292154Z AUTO 04004KT 10SM FEW037 FEW044 BKN060 29/21 A2989 RMK AO2
                 SLP119 T02890211 =
2016-07-29 16:54 METAR KGED 292054Z AUTO 02006KT 10SM SCT047 30/21 A2987 RMK AO2 SLP115 T03000206
                 53007 =
2016-07-29 15:54 METAR KGED 291954Z AUTO 35009KT 10SM FEW037 SCT050 30/21 A2987 RMK AO2 SLP112
                 T03000206 =
2016-07-29 14:54 METAR KGED 291854Z AUTO 33005KT 10SM SCT030 SCT038 BKN048 29/21 A2986 RMK AO2
                 SLP109 T02940211 =
2016-07-29 13:54 METAR KGED 291754Z AUTO 34010KT 10SM SCT027 BKN047 29/22 A2985 RMK AO2 SLP108
                 T02890217 10294 20239 51002 =
2016-07-29 12:54 METAR KGED 291654Z AUTO 02005KT 10SM FEW024 OVC042 28/22 A2985 RMK AO2 SLP107
                 T02830217 =
2016-07-29 12:09 METAR KGED 291609Z AUTO 02008KT 10SM FEW017 SCT029 OVC037 28/22 A2985 RMK AO2
                 T02780222 =
2016-07-29 11:54 METAR KGED 291554Z AUTO 02009KT 10SM SCT015 BKN029 OVC035 27/22 A2986 RMK AO2
                 SLP109 T02720222 =
2016-07-29 10:54 METAR KGED 291454Z AUTO 01009KT 10SM BKN017 OVC022 26/22 A2985 RMK AO2 SLP106
                 T02560222 50007 =
2016-07-29 10:50 METAR KGED 291450Z AUTO 01006KT 10SM BKN017 OVC022 26/22 A2985 RMK AO2 =
2016-07-29 10:08 METAR KGED 291408Z AUTO 35006KT 10SM OVC010 25/22 A2984 RMK AO2 T02500222 =
2016-07-29 09:54 METAR KGED 291354Z AUTO VRB05KT 10SM OVC009 24/22 A2984 RMK AO2 CIG 007V014
                 SLP103 T02440222 =
2016-07-29 09:44 METAR KGED 291344Z AUTO 34006KT 10SM OVC011 24/22 A2984 RMK AO2 CIG 007V013
                 T02440222 =
2016-07-29 08:54 METAR KGED 291254Z AUTO 31006KT 7SM FEW005 BKN009 OVC014 24/23 A2983 RMK AO2 CIG
                 007V012 SLP099 T02440233 =
2016-07-29 08:33 METAR KGED 291233Z AUTO VRB06KT 8SM FEW005 BKN014 OVC022 24/23 A2983 RMK AO2
                 T02390228 =
2016-07-29 08:02 METAR KGED 291202Z AUTO 29003KT 6SM BR BKN017 BKN050 24/23 A2981 RMK AO2
                 T02390233 =
2016-07-29 07:54 METAR KGED 291154Z AUTO 30003KT 6SM BR SCT017 BKN050 24/23 A2981 RMK AO2 SLP093
                 60005 70288 T02390228 10239 20228 53006 =
2016-07-29 07:32 METAR KGED 291132Z AUTO 22004KT 6SM BR SCT020 SCT050 23/23 A2980 RMK AO2
                 T02330228 =
2016-07-29 07:10 METAR KGED 291110Z AUTO 26003KT 6SM BR BKN021 OVC042 23/23 A2981 RMK AO2
                 T02330228 =
2016-07-29 06:54 METAR KGED 291054Z AUTO 00000KT 6SM BR FEW021 BKN042 OVC055 23/23 A2980 RMK AO2
                 SLP091 T02330228 =
2016-07-29 06:39 METAR KGED 291039Z AUTO 00000KT 5SM BR FEW002 BKN043 OVC060 23/23 A2980 RMK AO2
                 T02330228 =
2016-07-29 06:02 METAR KGED 291002Z AUTO 00000KT 8SM FEW021 SCT029 BKN070 23/23 A2979 RMK AO2
                 T02330228 =
2016-07-29 05:54 METAR KGED 290954Z AUTO 00000KT 7SM BKN028 BKN033 BKN075 23/23 A2979 RMK AO2
                 SLP087 T02330228 =
2016-07-29 05:50 METAR KGED 290950Z AUTO 00000KT 8SM FEW016 BKN025 OVC075 23/23 A2979 RMK AO2 =
2016-07-29 05:01 METAR KGED 290901Z AUTO 31004KT 7SM SCT003 BKN031 23/23 A2979 RMK AO2 T02280228
                 =
2016-07-29 04:54 METAR KGED 290854Z AUTO 30004KT 8SM BKN003 BKN032 23/23 A2979 RMK AO2 RAB43E53
                 SLP087 P0000 60005 T02280228 55017 =
2016-07-29 03:54 METAR KGED 290754Z AUTO 02004KT 5SM BR OVC002 23/22 A2977 RMK AO2 RAE12 SLP080
                 P0001 T02280222 =
2016-07-29 03:32 METAR KGED 290732Z AUTO 08003KT 8SM BKN003 23/22 A2978 RMK AO2 RAE12 P0000
                 T02280222 =
2016-07-29 03:12 METAR KGED 290712Z AUTO 09005KT 10SM FEW003 SCT046 23/22 A2978 RMK AO2 RAE12
                 PRESFR P0000 T02280222 =
2016-07-29 02:54 METAR KGED 290654Z AUTO 34004KT 10SM -RA FEW065 23/22 A2981 RMK AO2 LTG DSNT E
                 SLP094 P0004 T02330222 =
2016-07-29 01:54 METAR KGED 290554Z AUTO 25003KT 4SM -RA BR BKN055 BKN070 OVC110 23/22 A2984 RMK
                 AO2 LTG DSNT S AND SW SLP104 P0003 60063 T02330222 10239 20228 58005 =
2016-07-29 00:54 METAR KGED 290454Z AUTO VRB03KT 10SM -RA FEW004 SCT060 BKN110 23/22 A2984 RMK
                 AO2 LTG DSNT S SLP103 P0012 T02330222 403390228 =
2016-07-29 00:34 METAR KGED 290434Z AUTO 00000KT 6SM -RA BR BKN095 BKN110 23/22 A2984 RMK AO2 LTG
                 DSNT SE AND S P0011 T02280222 =
2016-07-28 23:54 METAR KGED 290354Z AUTO 00000KT 3SM VCTS RA BR SCT046 BKN090 OVC110 23/22 A2986
                 RMK AO2 LTG DSNT ALQDS RAB01 TSB09E42 SLP110 P0043 T02280222 =
2016-07-28 23:42 METAR KGED 290342Z AUTO 00000KT 2SM VCTS RA BR BKN044 BKN075 OVC100 23/22 A2987
                 RMK AO2 VIS 1 1/2V3 LTG DSNT E-SW RAB01 TSB09E42 P0039 T02280222 =
2016-07-28 23:28 METAR KGED 290328Z AUTO 31006KT 1 1/2SM +TSRA BR BKN036 BKN065 OVC090 23/23
                 A2987 RMK AO2 LTG DSNT ALQDS RAB01 TSB09 P0030 T02330228 =
2016-07-28 23:18 METAR KGED 290318Z AUTO 29007KT 1SM +TSRA BR SCT028 BKN065 OVC090 24/23 A2988
                 RMK AO2 LTG DSNT SE-W RAB01 TSB09 P0019 T02390233 =
2016-07-28 23:12 METAR KGED 290312Z AUTO 27006KT 2 1/2SM -TSRA BR FEW018 BKN080 OVC100 24/23
                 A2988 RMK AO2 LTG DSNT SE-W RAB01 TSB09 PRESRR P0007 T02390233 =
2016-07-28 23:02 METAR KGED 290302Z AUTO 28005KT 7SM VCTS -RA OVC095 24/23 A2986 RMK AO2 LTG DSNT
                 SW AND W RAB01 P0001 T02390233 =
2016-07-28 22:54 METAR KGED 290254Z AUTO 28003KT 9SM BKN100 24/23 A2986 RMK AO2 LTG DSNT SW AND W
                 SLP109 60005 T02390233 55009 =
2016-07-28 21:54 METAR KGED 290154Z AUTO VRB04KT 10SM FEW100 FEW110 24/23 A2983 RMK AO2 LTG DSNT
                 E-S RAB09E53 TSB24E54 SLP099 P0005 T02390228 =
2016-07-28 21:24 METAR KGED 290124Z AUTO 16004KT 4SM TSRA BR SCT100 BKN110 24/23 A2983 RMK AO2
                 LTG DSNT NE-S RAB09 TSB24 PRESFR P0003 T02390228 =
2016-07-28 21:02 METAR KGED 290102Z AUTO 13006KT 10SM BKN110 24/23 A2985 RMK AO2 LTG DSNT ALQDS
                 PRESFR T02390228 =
2016-07-28 20:54 METAR KGED 290054Z AUTO 10005KT 10SM VCTS FEW090 BKN110 24/23 A2986 RMK AO2 LTG
                 DSNT E-S RAE10 TSB02E17 PRESFR SLP110 P0000 T02390228 =
2016-07-28 20:23 METAR KGED 290023Z AUTO 12003KT 10SM VCTS FEW055 FEW110 23/22 A2988 RMK AO2 LTG
                 DSNT ALQDS RAE10 TSB02E17 P0000 T02330222 =
2016-07-28 20:08 METAR KGED 290008Z AUTO 18009KT 10SM -TSRA FEW055 SCT070 BKN120 23/23 A2989 RMK
                 AO2 LTG DSNT ALQDS TSB02 P0000 T02330228 =
2016-07-28 19:54 METAR KGED 282354Z AUTO 15005KT 5SM VCTS -RA BR SCT032 BKN120 23/23 A2988 RMK
                 AO2 PK WND 01026/2303 LTG DSNT E-SW TSE51 SLP118 P0115 60205 T02330228 10283
                 20228 51015 =
2016-07-28 19:47 METAR KGED 282347Z AUTO 16005KT 3SM TSRA BR BKN032 BKN070 OVC120 23/23 A2989 RMK
                 AO2 PK WND 01026/2303 LTG DSNT ALQDS P0114 T02330228 =
2016-07-28 19:42 METAR KGED 282342Z AUTO 13006KT 1 3/4SM +TSRA BR BKN030 OVC070 23/23 A2988 RMK
                 AO2 PK WND 01026/2303 LTG DSNT ALQDS P0113 T02330228 =
2016-07-28 19:37 METAR KGED 282337Z AUTO 08004KT 1SM +TSRA BR FEW009 OVC021 23/23 A2989 RMK AO2
                 PK WND 01026/2303 LTG DSNT ALQDS P0110 T02330228 =

Support USWX by starting your Amazon purchase here.